createdAt,value
2022-10-19T00:01:44.375Z,6.67
2022-10-19T00:04:11.640Z,6.67
2022-10-19T00:06:39.392Z,6.67
2022-10-19T00:09:08.431Z,6.68
2022-10-19T00:11:37.666Z,6.67
2022-10-19T00:14:05.858Z,6.68
2022-10-19T00:16:36.074Z,6.64
2022-10-19T00:19:06.361Z,6.61
2022-10-19T00:21:33.934Z,6.58
2022-10-19T00:24:01.178Z,6.55
2022-10-19T00:26:28.501Z,6.50
2022-10-19T00:28:56.641Z,6.49
2022-10-19T00:31:24.532Z,6.47
2022-10-19T00:33:53.834Z,6.43
2022-10-19T00:36:23.993Z,6.40
2022-10-19T00:38:51.637Z,6.37
2022-10-19T00:41:19.969Z,6.31
2022-10-19T00:43:53.120Z,6.24
2022-10-19T00:46:20.836Z,6.24
2022-10-19T00:51:17.954Z,6.18
2022-10-19T00:53:45.271Z,6.15
2022-10-19T00:56:14.869Z,6.15
2022-10-19T00:58:43.716Z,6.15
2022-10-19T01:01:16.072Z,6.13
2022-10-19T01:03:43.699Z,6.08
2022-10-19T01:06:12.134Z,6.05
2022-10-19T01:08:40.886Z,6.04
2022-10-19T01:11:19.737Z,6.01
2022-10-19T01:13:55.972Z,5.97
2022-10-19T01:16:32.799Z,5.96
2022-10-19T01:19:12.903Z,5.93
2022-10-19T01:21:45.097Z,5.88
2022-10-19T01:24:40.800Z,5.85
2022-10-19T01:27:32.990Z,5.85
2022-10-19T01:30:06.850Z,5.86
2022-10-19T01:32:45.451Z,5.79
2022-10-19T01:35:20.174Z,5.79
2022-10-19T01:37:50.429Z,5.75
2022-10-19T01:40:25.155Z,5.72
2022-10-19T01:43:04.401Z,5.72
2022-10-19T01:45:39.569Z,5.69
2022-10-19T01:48:09.163Z,5.69
2022-10-19T01:50:39.386Z,5.67
2022-10-19T01:53:09.182Z,5.64
2022-10-19T01:55:40.827Z,5.60
2022-10-19T01:58:10.817Z,5.61
2022-10-19T02:00:42.682Z,5.60
2022-10-19T02:03:11.818Z,5.61
2022-10-19T02:05:40.663Z,5.60
2022-10-19T02:08:12.581Z,5.60
2022-10-19T02:10:42.340Z,5.62
2022-10-19T02:13:12.406Z,5.59
2022-10-19T02:15:44.694Z,5.55
2022-10-19T02:18:14.820Z,5.55
2022-10-19T02:20:42.035Z,5.54
2022-10-19T02:23:09.838Z,5.55
2022-10-19T02:25:37.414Z,5.56
2022-10-19T02:28:05.662Z,5.57
2022-10-19T02:30:32.918Z,5.54
2022-10-19T02:33:01.441Z,5.53
2022-10-19T02:35:28.856Z,5.54
2022-10-19T02:38:00.245Z,5.52
2022-10-19T02:40:29.809Z,5.53
2022-10-19T02:43:02.001Z,5.53
2022-10-19T02:45:32.381Z,5.46
2022-10-19T02:48:04.929Z,5.42
2022-10-19T02:50:32.285Z,5.41
2022-10-19T02:53:00.200Z,5.41
2022-10-19T02:55:29.163Z,5.41
2022-10-19T02:57:57.377Z,5.40
2022-10-19T03:00:24.613Z,5.37
2022-10-19T03:02:51.898Z,5.32
2022-10-19T03:05:20.422Z,5.32
2022-10-19T03:07:47.616Z,5.31
2022-10-19T03:10:15.137Z,5.27
2022-10-19T03:12:42.336Z,5.20
2022-10-19T03:15:14.843Z,5.14
2022-10-19T03:17:42.200Z,5.07
2022-10-19T03:20:10.474Z,5.06
2022-10-19T03:22:39.142Z,5.02
2022-10-19T03:25:07.206Z,5.01
2022-10-19T03:27:34.847Z,5.01
2022-10-19T03:30:02.331Z,5.02
2022-10-19T03:32:29.610Z,5.04
2022-10-19T03:34:56.675Z,5.03
2022-10-19T03:37:23.950Z,5.04
2022-10-19T03:39:52.585Z,5.04
2022-10-19T03:42:19.816Z,5.03
2022-10-19T03:44:47.027Z,5.03
2022-10-19T03:47:14.388Z,5.01
2022-10-19T03:49:43.525Z,4.97
2022-10-19T03:52:10.778Z,4.90
2022-10-19T03:54:38.042Z,4.83
2022-10-19T03:57:06.709Z,4.79
2022-10-19T03:59:33.854Z,4.80
2022-10-19T04:02:00.961Z,4.76
2022-10-19T04:04:28.277Z,4.75
2022-10-19T04:06:55.402Z,4.73
2022-10-19T04:09:23.495Z,4.70
2022-10-19T04:11:50.854Z,4.69
2022-10-19T04:14:31.772Z,4.68
2022-10-19T04:17:01.467Z,4.65
2022-10-19T04:19:28.593Z,4.61
2022-10-19T04:21:55.877Z,4.60
2022-10-19T04:24:23.050Z,4.61
2022-10-19T04:26:51.771Z,4.62
2022-10-19T04:29:23.744Z,4.62
2022-10-19T04:31:53.765Z,4.63
2022-10-19T04:34:20.999Z,4.64
2022-10-19T04:36:48.271Z,4.63
2022-10-19T04:39:15.713Z,4.66
2022-10-19T04:41:42.993Z,4.68
2022-10-19T04:44:10.641Z,4.69
2022-10-19T04:46:39.281Z,4.68
2022-10-19T04:49:07.010Z,4.71
2022-10-19T04:51:34.629Z,4.71
2022-10-19T04:54:02.677Z,4.66
2022-10-19T04:56:32.334Z,4.66
2022-10-19T04:59:01.230Z,4.66
2022-10-19T05:01:30.743Z,4.68
2022-10-19T05:04:01.509Z,4.69
2022-10-19T05:06:29.208Z,4.74
2022-10-19T05:08:56.860Z,4.74
2022-10-19T05:11:24.596Z,4.74
2022-10-19T05:13:51.828Z,4.77
2022-10-19T05:16:21.088Z,4.82
2022-10-19T05:18:49.188Z,4.91
2022-10-19T05:21:19.314Z,5.00
2022-10-19T05:23:46.509Z,5.10
2022-10-19T05:26:17.474Z,5.21
2022-10-19T05:28:48.557Z,5.37
2022-10-19T05:31:18.799Z,5.52
2022-10-19T05:33:46.509Z,5.65
2022-10-19T05:36:18.168Z,5.89
2022-10-19T05:38:46.291Z,6.13
2022-10-19T05:41:14.278Z,6.42
2022-10-19T05:43:42.289Z,6.81
2022-10-19T05:46:11.452Z,7.18
2022-10-19T05:48:39.402Z,7.52
2022-10-19T05:51:08.986Z,7.94
2022-10-19T05:56:07.350Z,8.64
2022-10-19T05:58:35.669Z,8.94
2022-10-19T06:01:03.086Z,9.25
2022-10-19T06:03:30.846Z,9.61
2022-10-19T06:05:58.224Z,9.97
2022-10-19T06:08:25.524Z,10.19
2022-10-19T06:11:05.473Z,10.27
2022-10-19T06:13:32.948Z,10.58
2022-10-19T06:16:00.223Z,11.02
2022-10-19T06:18:27.682Z,11.41
2022-10-19T06:20:54.838Z,11.77
2022-10-19T06:23:22.031Z,12.10
2022-10-19T06:25:49.417Z,12.33
2022-10-19T06:28:18.058Z,12.59
2022-10-19T06:30:45.326Z,12.87
2022-10-19T06:33:13.132Z,13.17
2022-10-19T06:35:42.571Z,13.33
2022-10-19T06:38:10.201Z,13.55
2022-10-19T06:40:37.347Z,13.81
2022-10-19T06:43:04.662Z,14.04
2022-10-19T06:45:35.908Z,14.30
2022-10-19T15:03:47.759Z,21.15
2022-10-19T15:06:19.598Z,20.96
2022-10-19T15:08:51.397Z,20.79
2022-10-19T15:11:26.853Z,20.60
2022-10-19T15:14:02.314Z,20.44
2022-10-19T15:16:42.241Z,20.27
2022-10-19T15:19:21.741Z,20.11
2022-10-19T15:22:06.715Z,19.94
2022-10-19T15:24:34.205Z,19.79
2022-10-19T15:27:09.869Z,19.59
2022-10-19T15:29:37.900Z,19.41
2022-10-19T15:32:16.134Z,19.22
2022-10-19T15:34:46.206Z,19.07
2022-10-19T15:37:18.982Z,18.94
2022-10-19T15:39:47.045Z,18.80
2022-10-19T15:42:35.230Z,18.67
2022-10-19T15:45:03.610Z,18.54
2022-10-19T15:47:31.351Z,18.46
2022-10-19T15:50:02.319Z,18.37
2022-10-19T15:52:31.931Z,18.25
2022-10-19T15:55:00.354Z,18.10
2022-10-19T15:57:30.336Z,17.93
2022-10-19T15:59:59.635Z,17.75
2022-10-19T16:02:27.217Z,17.55
2022-10-19T16:04:55.160Z,17.33
2022-10-19T16:07:28.169Z,17.14
2022-10-19T16:09:55.586Z,17.00
2022-10-19T16:12:23.623Z,16.88
2022-10-19T16:14:50.955Z,16.76
2022-10-19T16:17:18.255Z,16.66
2022-10-19T16:19:46.094Z,16.59
2022-10-19T16:22:14.041Z,16.53
2022-10-19T16:24:42.724Z,16.47
2022-10-19T16:27:10.003Z,16.40
2022-10-19T16:29:37.324Z,16.33
2022-10-19T16:32:04.706Z,16.26
2022-10-19T16:34:31.987Z,16.15
2022-10-19T16:37:02.597Z,16.02
2022-10-19T16:39:33.151Z,15.90
2022-10-19T16:42:01.926Z,15.75
2022-10-19T16:44:29.093Z,15.63
2022-10-19T16:46:56.614Z,15.51
2022-10-19T16:49:23.844Z,15.39
2022-10-19T16:51:54.677Z,15.30
2022-10-19T16:54:26.820Z,15.18
2022-10-19T16:56:55.710Z,15.07
2022-10-19T16:59:24.557Z,14.96
2022-10-19T17:01:51.907Z,14.87
2022-10-19T17:04:19.297Z,14.81
2022-10-19T17:06:46.776Z,14.74
2022-10-19T17:09:37.071Z,14.68
2022-10-19T17:12:01.324Z,14.58
2022-10-19T17:14:29.993Z,14.50
2022-10-19T17:16:57.208Z,14.46
2022-10-19T17:19:24.454Z,14.40
2022-10-19T17:21:55.046Z,14.34
2022-10-19T17:24:23.011Z,14.26
2022-10-19T17:26:51.913Z,14.19
2022-10-19T17:29:20.002Z,14.13
2022-10-19T17:31:49.410Z,14.07
2022-10-19T17:34:17.197Z,14.03
2022-10-19T17:36:45.998Z,13.97
2022-10-19T17:39:17.553Z,13.88
2022-10-19T17:41:45.382Z,13.74
2022-10-19T17:44:13.020Z,13.60
2022-10-19T17:46:40.390Z,13.42
2022-10-19T17:49:09.964Z,13.26
2022-10-19T17:51:38.079Z,13.11
2022-10-19T17:54:07.763Z,12.95
2022-10-19T17:56:36.113Z,12.84
2022-10-19T17:59:04.509Z,12.77
2022-10-19T18:01:31.837Z,12.69
2022-10-19T18:03:59.214Z,12.62
2022-10-19T18:06:31.500Z,12.53
2022-10-19T18:09:00.145Z,12.45
2022-10-19T18:11:29.185Z,12.37
2022-10-19T18:13:59.107Z,12.25
2022-10-19T18:16:28.124Z,12.18
2022-10-19T18:18:56.907Z,12.15
2022-10-19T18:21:26.360Z,12.14
2022-10-19T18:23:57.017Z,12.12
2022-10-19T18:26:26.151Z,12.07
2022-10-19T18:28:55.122Z,12.02
2022-10-19T18:31:24.352Z,11.97
2022-10-19T18:33:56.811Z,11.90
2022-10-19T18:36:24.121Z,11.85
2022-10-19T18:38:52.186Z,11.81
2022-10-19T18:41:21.366Z,11.77
2022-10-19T18:43:51.047Z,11.72
2022-10-19T18:46:19.573Z,11.66
2022-10-19T18:48:47.127Z,11.60
2022-10-19T18:51:17.592Z,11.56
2022-10-19T18:53:45.683Z,11.52
2022-10-19T18:56:14.766Z,11.49
2022-10-19T18:58:43.854Z,11.44
2022-10-19T19:01:13.563Z,11.40
2022-10-19T19:03:42.904Z,11.35
2022-10-19T19:06:12.248Z,11.27
2022-10-19T19:08:39.718Z,11.25
2022-10-19T19:11:11.597Z,11.20
2022-10-19T19:13:39.593Z,11.17
2022-10-19T19:16:08.917Z,11.14
2022-10-19T19:18:36.445Z,11.11
2022-10-19T19:21:05.451Z,11.07
2022-10-19T19:23:33.309Z,10.96
2022-10-19T19:26:00.398Z,10.89
2022-10-19T19:28:27.691Z,10.81
2022-10-19T19:30:54.913Z,10.74
2022-10-19T19:33:23.638Z,10.70
2022-10-19T19:35:52.283Z,10.64
2022-10-19T19:38:19.538Z,10.62
2022-10-19T19:40:46.792Z,10.57
2022-10-19T19:43:15.438Z,10.51
2022-10-19T19:45:43.580Z,10.50
2022-10-19T19:48:11.251Z,10.47
2022-10-19T19:50:39.919Z,10.46
2022-10-19T19:53:07.229Z,10.42
2022-10-19T19:55:38.168Z,10.37
2022-10-19T19:58:06.454Z,10.30
2022-10-19T20:00:33.630Z,10.26
2022-10-19T20:03:00.972Z,10.21
2022-10-19T20:05:28.559Z,10.20
2022-10-19T20:07:57.197Z,10.17
2022-10-19T20:10:24.442Z,10.11
2022-10-19T20:12:51.744Z,10.08
2022-10-19T20:15:19.018Z,10.06
2022-10-19T20:17:46.611Z,10.02
2022-10-19T20:20:15.572Z,9.99
2022-10-19T20:22:46.328Z,9.96
2022-10-19T20:25:15.447Z,9.90
2022-10-19T20:27:43.535Z,9.86
2022-10-19T20:30:11.536Z,9.81
2022-10-19T20:32:38.965Z,9.77
2022-10-19T20:35:07.460Z,9.73
2022-10-19T20:37:34.744Z,9.67
2022-10-19T20:40:08.360Z,9.62
2022-10-19T20:42:37.873Z,9.58
2022-10-19T20:45:06.597Z,9.50
2022-10-19T20:47:33.837Z,9.45
2022-10-19T20:50:01.206Z,9.40
2022-10-19T20:52:28.512Z,9.35
2022-10-19T20:54:55.708Z,9.30
2022-10-19T20:57:22.950Z,9.28
2022-10-19T20:59:51.624Z,9.25
2022-10-19T21:02:18.862Z,9.19
2022-10-19T21:04:45.985Z,9.11
2022-10-19T21:07:13.154Z,9.04
2022-10-19T21:09:40.351Z,9.00
2022-10-19T21:12:07.625Z,9.00
2022-10-19T21:14:34.888Z,8.98
2022-10-19T21:17:03.410Z,8.97
2022-10-19T21:19:31.197Z,8.95
2022-10-19T21:22:03.392Z,8.92
2022-10-19T21:24:32.775Z,8.88
2022-10-19T21:27:01.511Z,8.85
2022-10-19T21:29:28.826Z,8.84
2022-10-19T21:31:56.411Z,8.80
2022-10-19T21:34:27.454Z,8.77
2022-10-19T21:36:55.497Z,8.72
2022-10-19T21:39:23.053Z,8.67
2022-10-19T21:41:50.904Z,8.64
2022-10-19T21:44:18.983Z,8.65
2022-10-19T21:46:47.919Z,8.65
2022-10-19T21:49:15.776Z,8.65
2022-10-19T21:51:46.647Z,8.62
2022-10-19T21:54:15.862Z,8.59
2022-10-19T21:56:43.407Z,8.56
2022-10-19T21:59:12.157Z,8.55
2022-10-19T22:01:41.185Z,8.53
2022-10-19T22:04:12.214Z,8.51
2022-10-19T22:06:39.832Z,8.53
2022-10-19T22:09:10.011Z,8.53
2022-10-19T22:11:37.321Z,8.51
2022-10-19T22:14:04.898Z,8.45
2022-10-19T22:16:33.664Z,8.44
2022-10-19T22:19:01.126Z,8.45
2022-10-19T22:21:30.286Z,8.40
2022-10-19T22:23:58.875Z,8.39
2022-10-19T22:26:29.224Z,8.39
2022-10-19T22:28:57.439Z,8.37
2022-10-19T22:31:26.207Z,8.34
2022-10-19T22:33:53.562Z,8.32
2022-10-19T22:36:20.858Z,8.31
2022-10-19T22:38:48.382Z,8.29
2022-10-19T22:41:15.654Z,8.26
2022-10-19T22:43:44.205Z,8.23
2022-10-19T22:46:11.511Z,8.25
2022-10-19T22:48:38.712Z,8.27
2022-10-19T22:51:06.042Z,8.30
2022-10-19T22:53:33.202Z,8.35
2022-10-19T22:56:00.502Z,8.37
2022-10-19T22:58:27.798Z,8.40
2022-10-19T23:01:02.149Z,8.40
2022-10-19T23:03:29.410Z,8.39
2022-10-19T23:05:56.637Z,8.36
2022-10-19T23:08:23.897Z,8.34
2022-10-19T23:10:51.279Z,8.34
2022-10-19T23:13:18.445Z,8.32
2022-10-19T23:15:45.918Z,8.29
2022-10-19T23:18:14.585Z,8.27
2022-10-19T23:20:41.897Z,8.22
2022-10-19T23:23:09.376Z,8.19
2022-10-19T23:25:36.848Z,8.17
2022-10-19T23:28:04.266Z,8.13
2022-10-19T23:30:31.494Z,8.07
2022-10-19T23:32:58.586Z,8.04
2022-10-19T23:35:27.204Z,8.02
2022-10-19T23:37:54.397Z,8.01
2022-10-19T23:40:21.614Z,7.99
2022-10-19T23:42:48.936Z,8.00
2022-10-19T23:45:16.120Z,7.99
2022-10-19T23:47:43.314Z,7.96
2022-10-19T23:50:10.550Z,7.95
2022-10-19T23:52:39.129Z,7.94
2022-10-19T23:55:07.816Z,7.93
2022-10-19T23:57:35.397Z,7.90
